.
WxDataArchive / Data Records for 2010-08-02
2010-08-01 August 2010 2010-08-03

Data Records for Monday, 02 August 2010

Time	Temp	Chill	HIndex	Humid	Dewpt	 Wind 	HiWind	WindDir	Rain 	Barom 
-----	----	-----	------	-----	-----	------	------	-------	-----	----- 
00:00	69.8	69.8	69.8	87	65.7	0	0	---	0.00	29.956 
00:05	69.8	69.8	69.8	87	65.7	0	0	---	0.00	29.956 
00:10	69.6	69.6	69.6	88	65.9	0	0	---	0.00	29.956 
00:15	69.4	69.4	69.4	88	65.7	0	0	---	0.00	29.959 
00:20	69.3	69.3	69.3	88	65.6	0	0	---	0.00	29.959 
00:25	69.1	69.1	69.1	88	65.4	0	0	---	0.00	29.959 
00:30	69.1	69.1	69.1	89	65.7	0	0	---	0.00	29.960 
00:35	68.9	68.9	68.9	89	65.5	0	0	---	0.00	29.960 
00:40	68.8	68.8	68.8	89	65.4	0	0	---	0.00	29.960 
00:45	68.8	68.8	68.8	90	65.7	1	3	90	0.00	29.963 
00:50	68.9	68.9	68.9	91	66.2	0	0	---	0.00	29.963 
00:55	68.9	68.9	68.9	91	66.2	0	0	---	0.00	29.963 
01:00	68.9	68.9	68.9	91	66.2	0	0	---	0.00	29.961 
01:05	68.8	68.8	68.8	91	66.1	0	0	---	0.00	29.961 
01:10	68.8	68.8	68.8	91	66.1	0	0	---	0.00	29.961 
01:15	68.6	68.6	68.6	91	65.9	0	0	---	0.00	29.963 
01:20	68.4	68.4	68.4	91	65.7	0	0	---	0.00	29.963 
01:25	68.3	68.3	68.3	91	65.6	0	0	---	0.00	29.963 
01:30	68.3	68.3	68.3	91	65.6	0	0	---	0.00	29.966 
01:35	68.1	68.1	68.1	91	65.4	0	0	---	0.00	29.966 
01:40	67.9	67.9	67.9	92	65.5	0	0	---	0.00	29.966 
01:45	67.9	67.9	67.9	92	65.5	0	0	---	0.00	29.963 
01:50	67.8	67.8	67.8	92	65.4	0	0	---	0.00	29.963 
01:55	67.6	67.6	67.6	92	65.2	0	0	---	0.00	29.963 
02:00	67.6	67.6	67.6	92	65.2	0	0	---	0.00	29.963 
02:05	67.4	67.4	67.4	92	65.0	0	0	---	0.00	29.963 
02:10	67.3	67.3	67.3	92	64.9	0	0	---	0.00	29.963 
02:15	67.3	67.3	67.3	92	64.9	0	0	---	0.00	29.960 
02:20	67.1	67.1	67.1	92	64.7	0	0	---	0.00	29.960 
02:25	67.1	67.1	67.1	92	64.7	0	0	---	0.00	29.960 
02:30	66.9	66.9	66.9	93	64.8	0	0	---	0.00	29.960 
02:35	66.9	66.9	66.9	93	64.8	0	0	---	0.00	29.960 
02:40	66.8	66.8	66.8	93	64.7	0	0	---	0.00	29.960 
02:45	66.6	66.6	66.6	93	64.5	0	0	---	0.00	29.963 
02:50	66.6	66.6	66.6	93	64.5	0	0	---	0.00	29.963 
02:55	66.4	66.4	66.4	93	64.3	0	0	---	0.00	29.963 
03:00	66.4	66.4	66.4	93	64.3	0	0	---	0.00	29.967 
03:05	66.3	66.3	66.3	93	64.2	0	0	---	0.00	29.967 
03:10	66.3	66.3	66.3	93	64.2	0	0	---	0.00	29.967 
03:15	66.1	66.1	66.1	94	64.3	0	0	---	0.00	29.968 
03:20	66.0	66.0	66.0	94	64.2	0	0	---	0.00	29.968 
03:25	66.0	66.0	66.0	94	64.2	0	0	---	0.00	29.968 
03:30	65.8	65.8	65.8	94	64.0	0	0	---	0.00	29.969 
03:35	65.8	65.8	65.8	94	64.0	0	0	---	0.00	29.969 
03:40	65.8	65.8	65.8	94	64.0	0	0	---	0.00	29.969 
03:45	65.6	65.6	65.6	94	63.8	0	0	---	0.00	29.975 
03:50	65.6	65.6	65.6	94	63.8	0	0	---	0.00	29.975 
03:55	65.6	65.6	65.6	94	63.8	0	0	---	0.00	29.975 
04:00	65.5	65.5	65.5	94	63.7	0	0	---	0.00	29.978 
04:05	65.5	65.5	65.5	94	63.7	0	0	---	0.00	29.978 
04:10	65.5	65.5	65.5	94	63.7	0	0	---	0.00	29.978 
04:15	65.3	65.3	65.3	95	63.8	0	0	---	0.00	29.979 
04:20	65.3	65.3	65.3	94	63.5	0	0	---	0.00	29.979 
04:25	65.3	65.3	65.3	95	63.8	0	0	---	0.00	29.979 
04:30	65.2	65.2	65.2	95	63.7	0	0	---	0.00	29.975 
04:35	65.2	65.2	65.2	95	63.7	0	0	---	0.00	29.975 
04:40	65.0	65.0	65.0	95	63.5	0	0	---	0.00	29.975 
04:45	65.0	65.0	65.0	95	63.5	0	0	---	0.00	29.977 
04:50	65.0	65.0	65.0	95	63.5	0	0	---	0.00	29.977 
04:55	65.0	65.0	65.0	95	63.5	0	0	---	0.00	29.977 
05:00	64.8	64.8	64.8	95	63.3	0	0	---	0.00	29.977 
05:05	64.8	64.8	64.8	95	63.3	0	0	---	0.00	29.977 
05:10	64.7	64.7	64.7	95	63.2	0	0	---	0.00	29.977 
05:15	64.7	64.7	64.7	95	63.2	0	0	---	0.00	29.975 
05:20	64.5	64.5	64.5	95	63.0	0	0	---	0.00	29.975 
05:25	64.5	64.5	64.5	95	63.0	0	0	---	0.00	29.975 
05:30	64.3	64.3	64.3	95	62.8	0	0	---	0.00	29.977 
05:35	64.3	64.3	64.3	95	62.8	0	0	---	0.00	29.977 
05:40	64.2	64.2	64.2	95	62.7	0	0	---	0.00	29.977 
05:45	64.2	64.2	64.2	95	62.7	0	0	---	0.00	29.978 
05:50	64.2	64.2	64.2	95	62.7	0	0	---	0.00	29.978 
05:55	64.0	64.0	64.0	95	62.5	0	0	---	0.00	29.978 
06:00	64.0	64.0	64.0	95	62.5	0	0	---	0.00	29.979 
06:05	63.9	63.9	63.9	95	62.4	0	0	---	0.00	29.979 
06:10	63.9	63.9	63.9	95	62.4	0	0	---	0.00	29.979 
06:15	63.9	63.9	63.9	95	62.4	0	0	---	0.00	29.989 
06:20	63.9	63.9	63.9	96	62.7	0	0	---	0.00	29.989 
06:25	63.9	63.9	63.9	96	62.7	0	0	---	0.00	29.989 
06:30	63.9	63.9	63.9	95	62.4	0	0	---	0.00	29.984 
06:35	63.9	63.9	63.9	96	62.7	0	0	---	0.00	29.984 
06:40	63.7	63.7	63.7	96	62.5	0	0	---	0.00	29.984 
06:45	63.7	63.7	63.7	96	62.5	0	0	---	0.00	29.989 
06:50	63.7	63.7	63.7	96	62.5	0	0	---	0.00	29.989 
06:55	63.5	63.5	63.5	96	62.3	0	0	---	0.00	29.989 
07:00	63.5	63.5	63.5	96	62.3	0	0	---	0.00	29.991 
07:05	63.7	63.7	63.7	96	62.5	0	0	---	0.00	29.991 
07:10	63.7	63.7	63.7	96	62.5	0	0	---	0.00	29.991 
07:15	63.9	63.9	63.9	96	62.7	0	0	---	0.00	29.998 
07:20	64.2	64.2	64.2	96	63.0	0	1	90	0.00	29.998 
07:25	64.3	64.3	64.3	96	63.1	0	0	---	0.00	29.998 
07:30	64.7	64.7	64.7	96	63.5	0	1	90	0.00	30.000 
07:35	64.8	64.8	64.8	96	63.6	0	0	---	0.00	30.000 
07:40	65.2	65.2	65.2	96	64.0	0	0	---	0.00	30.000 
07:45	65.6	65.6	65.6	96	64.4	0	1	90	0.00	30.003 
07:50	66.1	66.1	66.1	96	64.9	0	0	---	0.00	30.003 
07:55	66.8	66.8	66.8	95	65.3	0	0	---	0.00	30.003 
08:00	67.3	67.3	67.3	94	65.5	0	0	---	0.00	30.010 
08:05	67.9	67.9	67.9	93	65.8	0	1	90	0.00	30.010 
08:10	68.3	68.3	68.3	90	65.2	0	1	90	0.00	30.010 
08:15	68.6	68.6	68.6	89	65.2	0	1	90	0.00	30.012 
08:20	69.1	69.1	69.1	88	65.4	0	1	90	0.00	30.012 
08:25	69.6	69.6	69.6	85	64.9	0	2	90	0.00	30.012 
08:30	69.9	69.9	69.9	84	64.8	0	1	90	0.00	30.010 
08:35	70.6	70.6	70.6	83	65.2	0	1	90	0.00	30.010 
08:40	71.5	71.5	71.5	82	65.7	0	1	90	0.00	30.010 
08:45	72.5	72.5	72.5	80	66.0	0	1	90	0.00	30.008 
08:50	73.2	73.2	73.2	77	65.5	0	1	90	0.00	30.008 
08:55	73.9	73.9	73.9	75	65.5	0	1	90	0.00	30.008 
09:00	74.6	74.6	74.6	74	65.7	0	1	90	0.00	30.004 
09:05	75.3	75.3	76.8	72	65.6	0	1	90	0.00	30.004 
09:10	76.1	76.1	77.8	70	65.6	0	1	90	0.00	30.004 
09:15	76.7	76.7	78.4	69	65.7	0	1	90	0.00	30.006 
09:20	77.2	77.2	79.0	68	65.8	0	1	90	0.00	30.006 
09:25	77.6	77.6	79.5	68	66.2	0	1	90	0.00	30.006 
09:30	78.1	78.1	80.1	68	66.7	0	1	90	0.00	30.008 
09:35	78.6	78.6	80.7	67	66.7	0	1	90	0.00	30.008 
09:40	78.8	78.8	80.7	64	65.6	0	1	90	0.00	30.008 
09:45	79.4	79.4	81.2	61	64.8	0	1	90	0.00	30.007 
09:50	79.8	79.8	81.6	60	64.7	0	2	90	0.00	30.007 
09:55	80.1	80.1	82.0	61	65.4	0	2	90	0.00	30.007 
10:00	80.1	80.1	81.8	59	64.5	0	2	90	0.00	30.006 
10:05	80.1	80.1	82.0	61	65.4	0	2	90	0.00	30.006 
10:10	80.9	80.9	83.1	61	66.2	0	1	90	0.00	30.006 
10:15	81.6	81.6	83.7	59	65.9	0	2	90	0.00	30.005 
10:20	82.0	82.0	83.9	57	65.2	0	3	90	0.00	30.005 
10:25	81.8	81.8	83.6	57	65.0	0	1	90	0.00	30.005 
10:30	81.4	81.4	83.3	58	65.2	0	1	90	0.00	30.007 
10:35	81.6	81.6	83.7	59	65.9	0	1	90	0.00	30.007 
10:40	81.8	81.8	83.8	58	65.6	0	1	90	0.00	30.007 
10:45	82.6	82.6	84.3	55	64.8	0	1	90	0.00	30.010 
10:50	83.4	83.4	85.2	54	65.0	0	1	90	0.00	30.010 
10:55	83.4	83.4	85.0	53	64.4	0	2	90	0.00	30.010 
11:00	83.0	83.0	84.5	53	64.1	0	2	90	0.00	30.015 
11:05	83.6	83.6	85.0	52	64.1	0	2	90	0.00	30.015 
11:10	83.8	83.8	85.3	52	64.3	1	4	112	0.00	30.015 
11:15	84.1	84.1	85.7	52	64.5	1	3	112	0.00	30.019 
11:20	84.5	84.5	85.6	49	63.2	0	4	112	0.00	30.019 
11:25	84.7	84.7	86.0	50	64.0	1	5	90	0.00	30.019 
11:30	84.9	84.9	85.8	48	63.0	0	2	90	0.00	30.012 
11:35	84.7	84.7	85.4	47	62.2	1	3	90	0.00	30.012 
11:40	84.9	84.9	86.3	50	64.2	0	2	90	0.00	30.012 
11:45	84.9	84.9	86.3	50	64.2	0	2	90	0.00	30.010 
11:50	85.5	85.5	86.9	49	64.1	0	2	90	0.00	30.010 
11:55	85.5	85.5	86.4	47	62.9	1	3	90	0.00	30.010 
12:00	85.3	85.3	86.1	47	62.8	0	3	90	0.00	30.009 
12:05	85.3	85.3	86.6	49	63.9	1	3	270	0.00	30.009 
12:10	85.1	85.1	85.9	47	62.6	1	3	270	0.00	30.009 
12:15	85.5	85.5	86.9	49	64.1	1	3	112	0.00	30.009 
12:20	85.7	85.7	87.4	50	64.9	0	3	112	0.00	30.009 
12:25	86.3	86.3	88.0	49	64.9	0	3	112	0.00	30.009 
12:30	86.3	86.3	87.8	48	64.3	1	4	112	0.00	30.011 
12:35	86.3	86.3	87.8	48	64.3	1	6	112	0.00	30.011 
12:40	86.1	86.1	87.5	48	64.1	1	3	112	0.00	30.011 
12:45	85.3	85.3	86.4	48	63.4	1	4	248	0.00	30.010 
12:50	85.1	85.1	86.1	48	63.2	0	1	248	0.00	30.010 
12:55	85.7	85.7	87.4	50	64.9	1	3	248	0.00	30.010 
13:00	85.7	85.7	86.7	47	63.1	1	3	270	0.00	30.010 
13:05	85.9	85.9	87.7	50	65.1	0	1	270	0.00	30.010 
13:10	85.7	85.7	87.2	49	64.3	1	3	270	0.00	30.010 
13:15	85.5	85.5	87.2	50	64.7	0	1	22	0.00	30.007 
13:20	85.5	85.5	86.9	49	64.1	1	3	22	0.00	30.007 
13:25	85.5	85.5	87.4	51	65.3	0	2	315	0.00	30.007 
13:30	85.7	85.7	87.4	50	64.9	1	4	315	0.00	30.005 
13:35	86.1	86.1	87.5	48	64.1	2	4	90	0.00	30.005 
13:40	85.7	85.7	87.2	49	64.3	1	4	90	0.00	30.005 
13:45	85.3	85.3	86.6	49	63.9	1	3	90	0.00	30.003 
13:50	85.5	85.5	86.9	49	64.1	1	3	90	0.00	30.003 
13:55	85.5	85.5	87.2	50	64.7	0	2	90	0.00	30.003 
14:00	85.1	85.1	86.4	49	63.8	0	2	90	0.00	29.996 
14:05	84.9	84.9	86.3	50	64.2	0	2	90	0.00	29.996 
14:10	85.1	85.1	86.6	50	64.3	1	3	90	0.00	29.996 
14:15	85.5	85.5	87.2	50	64.7	0	2	90	0.00	29.995 
14:20	85.9	85.9	88.3	52	66.2	1	5	90	0.00	29.995 
14:25	86.1	86.1	88.0	50	65.3	1	3	90	0.00	29.995 
14:30	86.1	86.1	87.8	49	64.7	1	3	90	0.00	29.989 
14:35	86.1	86.1	88.0	50	65.3	1	2	90	0.00	29.989 
14:40	86.1	86.1	88.3	51	65.8	0	1	112	0.00	29.989 
14:45	86.3	86.3	88.3	50	65.4	0	1	112	0.00	29.988 
14:50	86.5	86.5	88.3	49	65.0	1	2	112	0.00	29.988 
14:55	86.1	86.1	88.0	50	65.3	0	2	292	0.00	29.988 
15:00	85.7	85.7	87.7	51	65.5	0	4	68	0.00	29.987 
15:05	85.9	85.9	88.3	52	66.2	1	2	90	0.00	29.987 
15:10	86.7	86.7	89.3	51	66.4	1	3	90	0.00	29.987 
15:15	87.0	87.0	88.8	48	64.9	1	3	90	0.00	29.976 
15:20	87.2	87.2	89.4	49	65.7	0	2	68	0.00	29.976 
15:25	87.2	87.2	89.7	50	66.3	1	3	68	0.00	29.976 
15:30	86.7	86.7	88.9	50	65.8	0	2	90	0.00	29.975 
15:35	86.3	86.3	88.9	52	66.6	1	5	90	0.00	29.975 
15:40	86.1	86.1	88.6	52	66.4	0	3	68	0.00	29.975 
15:45	86.1	86.1	88.3	51	65.8	1	3	68	0.00	29.973 
15:50	85.7	85.7	87.4	50	64.9	1	3	90	0.00	29.973 
15:55	85.7	85.7	88.3	53	66.6	1	3	90	0.00	29.973 
16:00	86.1	86.1	88.3	51	65.8	1	3	112	0.00	29.974 
16:05	86.7	86.7	89.3	51	66.4	1	3	270	0.00	29.974 
16:10	86.7	86.7	88.3	48	64.6	1	3	90	0.00	29.974 
16:15	87.0	87.0	89.7	51	66.6	1	3	90	0.00	29.974 
16:20	87.0	87.0	88.5	47	64.3	0	1	90	0.00	29.974 
16:25	87.0	87.0	89.1	49	65.5	0	3	270	0.00	29.974 
16:30	86.1	86.1	87.5	48	64.1	1	2	270	0.00	29.978 
16:35	85.7	85.7	87.7	51	65.5	0	1	270	0.00	29.978 
16:40	85.7	85.7	87.4	50	64.9	0	1	270	0.00	29.978 
16:45	85.7	85.7	87.7	51	65.5	0	2	270	0.00	29.975 
16:50	85.7	85.7	88.0	52	66.0	0	1	270	0.00	29.975 
16:55	85.5	85.5	87.7	52	65.8	0	2	270	0.00	29.975 
17:00	85.3	85.3	87.1	51	65.1	0	2	270	0.00	29.975 
17:05	85.3	85.3	87.4	52	65.6	0	4	248	0.00	29.975 
17:10	85.3	85.3	87.7	53	66.2	0	3	248	0.00	29.975 
17:15	85.3	85.3	88.0	54	66.7	0	2	248	0.00	29.974 
17:20	85.1	85.1	87.7	54	66.6	0	2	248	0.00	29.974 
17:25	85.1	85.1	87.4	53	66.0	0	2	338	0.00	29.974 
17:30	84.9	84.9	87.6	55	66.9	0	3	338	0.00	29.976 
17:35	84.7	84.7	87.6	56	67.2	0	2	338	0.00	29.976 
17:40	84.7	84.7	87.0	54	66.2	1	2	338	0.00	29.976 
17:45	84.7	84.7	86.8	53	65.6	0	2	338	0.00	29.974 
17:50	84.9	84.9	87.9	56	67.4	0	1	68	0.00	29.974 
17:55	84.9	84.9	87.6	55	66.9	0	2	68	0.00	29.974 
18:00	84.7	84.7	87.3	55	66.7	0	2	68	0.00	29.968 
18:05	84.5	84.5	87.8	58	68.1	0	1	68	0.00	29.968 
18:10	84.5	84.5	87.5	57	67.6	0	1	45	0.00	29.968 
18:15	84.5	84.5	87.8	58	68.1	0	2	45	0.00	29.964 
18:20	84.7	84.7	87.9	57	67.7	1	3	68	0.00	29.964 
18:25	85.3	85.3	88.5	56	67.8	1	4	68	0.00	29.964 
18:30	85.3	85.3	88.2	55	67.3	0	3	90	0.00	29.964 
18:35	85.3	85.3	88.8	57	68.3	1	2	90	0.00	29.964 
18:40	85.1	85.1	88.2	56	67.6	0	1	45	0.00	29.964 
18:45	85.1	85.1	87.9	55	67.1	0	1	45	0.00	29.961 
18:50	84.5	84.5	87.3	56	67.0	0	1	45	0.00	29.961 
18:55	84.1	84.1	86.9	57	67.2	0	1	45	0.00	29.961 
19:00	84.0	84.0	86.7	57	67.1	0	1	45	0.00	29.964 
19:05	83.8	83.8	86.9	59	67.9	0	0	---	0.00	29.964 
19:10	83.6	83.6	86.4	58	67.2	0	1	45	0.00	29.964 
19:15	83.6	83.6	86.9	60	68.2	0	1	45	0.00	29.960 
19:20	83.6	83.6	86.4	58	67.2	0	2	45	0.00	29.960 
19:25	83.8	83.8	86.7	58	67.4	0	4	45	0.00	29.960 
19:30	83.8	83.8	86.9	59	67.9	0	2	45	0.00	29.956 
19:35	83.8	83.8	86.9	59	67.9	0	2	45	0.00	29.956 
19:40	83.6	83.6	86.9	60	68.2	0	1	45	0.00	29.956 
19:45	83.2	83.2	86.5	61	68.3	0	1	45	0.00	29.953 
19:50	82.8	82.8	86.1	62	68.4	0	1	45	0.00	29.953 
19:55	82.6	82.6	85.7	62	68.2	0	1	45	0.00	29.953 
20:00	82.4	82.4	85.4	62	68.0	0	1	45	0.00	29.961 
20:05	82.2	82.2	85.3	63	68.3	0	0	---	0.00	29.961 
20:10	82.0	82.0	85.2	64	68.6	0	0	---	0.00	29.961 
20:15	81.8	81.8	84.9	64	68.4	0	0	---	0.00	29.953 
20:20	81.6	81.6	84.6	64	68.2	0	2	45	0.00	29.953 
20:25	81.4	81.4	84.4	65	68.5	0	2	45	0.00	29.953 
20:30	81.4	81.4	84.4	65	68.5	0	3	90	0.00	29.940 
20:35	81.2	81.2	84.1	65	68.3	0	2	90	0.00	29.940 
20:40	81.1	81.1	84.0	65	68.2	0	1	90	0.00	29.940 
20:45	81.1	81.1	84.0	65	68.2	0	0	---	0.00	29.949 
20:50	80.9	80.9	83.8	66	68.4	0	1	90	0.00	29.949 
20:55	80.7	80.7	83.5	66	68.3	0	0	---	0.00	29.949 
21:00	80.3	80.3	83.0	67	68.3	0	0	---	0.00	29.954 
21:05	80.1	80.1	82.9	68	68.6	0	0	---	0.00	29.954 
21:10	79.9	79.9	82.7	69	68.8	0	0	---	0.00	29.954 
21:15	79.8	79.8	82.5	69	68.7	0	0	---	0.00	29.953 
21:20	79.6	79.6	82.2	69	68.5	0	0	---	0.00	29.953 
21:25	79.2	79.2	81.7	70	68.5	0	0	---	0.00	29.953 
21:30	79.2	79.2	81.8	71	69.0	0	0	---	0.00	29.953 
21:35	79.0	79.0	81.5	71	68.8	0	0	---	0.00	29.953 
21:40	78.8	78.8	81.3	72	69.0	0	0	---	0.00	29.953 
21:45	78.6	78.6	81.0	72	68.8	0	0	---	0.00	29.955 
21:50	78.5	78.5	80.9	73	69.1	0	0	---	0.00	29.955 
21:55	78.3	78.3	80.6	74	69.3	0	1	90	0.00	29.955 
22:00	77.9	77.9	80.0	75	69.3	0	0	---	0.00	29.955 
22:05	77.7	77.7	79.7	76	69.5	0	0	---	0.00	29.955 
22:10	77.6	77.6	79.6	76	69.4	0	0	---	0.00	29.955 
22:15	77.4	77.4	79.3	76	69.2	0	0	---	0.00	29.954 
22:20	77.2	77.2	79.0	77	69.4	0	0	---	0.00	29.954 
22:25	77.0	77.0	78.7	77	69.2	0	0	---	0.00	29.954 
22:30	77.0	77.0	78.7	77	69.2	0	0	---	0.00	29.961 
22:35	76.8	76.8	78.3	78	69.4	0	0	---	0.00	29.961 
22:40	76.8	76.8	78.3	78	69.4	0	0	---	0.00	29.961 
22:45	76.7	76.7	78.2	78	69.3	0	0	---	0.00	29.961 
22:50	76.7	76.7	78.1	79	69.7	0	0	---	0.00	29.961 
22:55	76.7	76.7	78.1	79	69.7	0	0	---	0.00	29.961 
23:00	76.5	76.5	77.8	80	69.9	0	0	---	0.00	29.966 
23:05	76.5	76.5	77.8	80	69.9	0	0	---	0.00	29.966 
23:10	76.5	76.5	77.8	80	69.9	0	0	---	0.00	29.966 
23:15	76.5	76.5	77.7	81	70.2	0	0	---	0.00	29.968 
23:20	76.5	76.5	77.7	81	70.2	0	0	---	0.00	29.968 
23:25	76.5	76.5	77.7	81	70.2	0	0	---	0.00	29.968 
23:30	76.5	76.5	77.7	82	70.6	0	0	---	0.00	29.977 
23:35	76.5	76.5	77.7	82	70.6	0	0	---	0.00	29.977 
23:40	76.3	76.3	77.3	82	70.4	0	0	---	0.00	29.977 
23:45	76.3	76.3	77.2	83	70.7	0	0	---	0.00	29.977 
23:50	76.3	76.3	77.2	83	70.7	0	0	---	0.00	29.977 
23:55	76.3	76.3	77.2	83	70.7	0	0	---	0.00	29.977 

CoCoRaHS
IN-AL-39
A2 Web Hosting
Creative Commons License
GoDaddy
search engine by freefind advanced

loaded 2018-11-12 19:10:33 • last modified 2010-11-18 10:43:29
Privacy PolicyDisclaimer
• wx.awcolley.com is powered by PmWiki v.2002016 •
• all content (unless otherwise noted) © 2018 A W Colley